createdAt,value
2018-05-04T14:41:31.440Z,19.63
2018-05-04T14:43:46.441Z,19.74
2018-05-04T14:44:46.440Z,19.74
2018-05-04T14:46:42.468Z,19.71
2018-05-04T14:49:18.667Z,19.74
2018-05-04T14:50:52.947Z,19.62
2018-05-04T14:53:08.219Z,19.68
2018-05-04T14:54:08.114Z,19.65
2018-05-04T14:56:03.409Z,19.76
2018-05-04T14:57:03.297Z,19.78
2018-05-04T14:58:58.590Z,19.74
2018-05-04T15:01:13.816Z,19.80
2018-05-04T15:02:13.740Z,19.76
2018-05-04T15:04:09.086Z,19.77
2018-05-04T15:05:08.930Z,19.71
2018-05-04T15:07:04.256Z,19.73
2018-05-04T15:08:04.119Z,19.62
2018-05-04T15:09:59.441Z,19.62
2018-05-04T15:10:59.330Z,19.74
2018-05-04T15:12:54.657Z,19.74
2018-05-04T15:13:54.576Z,19.78
2018-05-04T15:15:49.879Z,19.80
2018-05-04T15:16:49.769Z,19.73
2018-05-04T15:18:45.147Z,19.87
2018-05-04T15:21:00.296Z,19.80
2018-05-04T15:22:00.206Z,19.99
2018-05-04T15:23:56.310Z,19.94
2018-05-04T15:24:56.282Z,20.03
2018-05-04T15:26:51.468Z,20.10
2018-05-04T15:27:51.395Z,20.03
2018-05-04T15:29:46.711Z,20.06
2018-05-04T15:32:02.759Z,20.14
2018-05-04T15:33:02.683Z,20.13
2018-05-04T15:34:58.044Z,20.23
2018-05-04T15:35:57.869Z,20.23
2018-05-04T15:37:53.145Z,20.29
2018-05-04T15:38:53.073Z,20.38
2018-05-04T15:40:48.428Z,20.28
2018-05-04T15:41:48.283Z,20.39
2018-05-04T15:43:43.575Z,20.26
2018-05-04T15:45:58.898Z,20.31
2018-05-04T15:50:09.725Z,20.23
2018-05-04T15:51:44.010Z,20.13
2018-05-04T15:52:43.898Z,19.99
2018-05-04T15:54:39.242Z,20.05
2018-05-04T15:55:39.100Z,19.88
2018-05-04T15:57:34.407Z,19.86
2018-05-04T15:58:34.296Z,19.84
2018-05-04T16:00:29.647Z,19.83
2018-05-04T16:01:29.510Z,19.95
2018-05-04T16:03:24.835Z,19.96
2018-05-04T16:04:24.719Z,19.95
2018-05-04T16:06:20.878Z,19.94
2018-05-04T16:07:20.797Z,19.99
2018-05-04T16:09:16.119Z,19.84
2018-05-04T16:10:16.009Z,19.86
2018-05-04T16:12:11.307Z,19.71
2018-05-04T16:13:11.230Z,19.80
2018-05-04T16:15:06.533Z,19.88
2018-05-04T16:16:06.400Z,19.78
2018-05-04T16:18:01.691Z,19.74
2018-05-04T16:19:01.601Z,19.78
2018-05-04T16:20:56.956Z,19.78
2018-05-04T16:23:12.226Z,19.65
2018-05-04T16:24:12.103Z,19.56
2018-05-04T16:26:07.436Z,19.71
2018-05-04T16:27:07.306Z,19.63
2018-05-04T16:29:02.594Z,19.41
2018-05-04T16:30:02.498Z,19.54
2018-05-04T16:31:57.822Z,19.56
2018-05-04T16:34:13.041Z,19.59
2018-05-04T16:35:12.945Z,19.56
2018-05-04T16:37:08.319Z,19.51
2018-05-04T16:38:08.193Z,19.51
2018-05-04T16:39:08.128Z,19.41
2018-05-04T16:40:08.045Z,19.41
2018-05-04T16:41:07.983Z,19.41
2018-05-04T16:42:07.931Z,19.39
2018-05-04T16:43:07.860Z,19.39
2018-05-04T16:44:07.817Z,19.29
2018-05-04T16:45:07.742Z,19.26
2018-05-04T16:46:07.688Z,19.21
2018-05-04T16:47:07.613Z,19.31
2018-05-04T16:48:07.548Z,19.29
2018-05-04T16:49:07.489Z,19.26
2018-05-04T16:50:07.416Z,19.25
2018-05-04T16:51:07.345Z,19.36
2018-05-04T16:52:07.281Z,19.31
2018-05-04T16:53:07.236Z,19.28
2018-05-04T16:54:07.165Z,19.29
2018-05-04T16:55:07.093Z,19.36
2018-05-04T16:56:07.033Z,19.31
2018-05-04T16:57:06.970Z,19.23
2018-05-04T16:58:06.922Z,19.28
2018-05-04T16:59:06.869Z,19.22
2018-05-04T17:00:06.779Z,19.25
2018-05-04T17:01:06.710Z,19.19
2018-05-04T17:02:06.653Z,19.23
2018-05-04T17:03:06.572Z,19.18
2018-05-04T17:04:06.514Z,19.16
2018-05-04T17:05:06.445Z,19.25
2018-05-04T17:06:06.397Z,19.13
2018-05-04T17:07:06.333Z,19.06
2018-05-04T17:08:06.266Z,19.10
2018-05-04T17:09:06.265Z,19.06
2018-05-04T17:10:06.133Z,19.07
2018-05-04T17:11:06.063Z,19.16
2018-05-04T17:12:06.004Z,19.18
2018-05-04T17:13:05.943Z,19.07
2018-05-04T17:14:05.961Z,19.16
2018-05-04T17:15:05.798Z,19.10
2018-05-04T17:16:05.749Z,19.07
2018-05-04T17:17:05.670Z,19.08
2018-05-04T17:18:05.618Z,19.08
2018-05-04T17:19:05.557Z,18.81
2018-05-04T17:20:05.488Z,18.87
2018-05-04T17:21:05.428Z,18.85
2018-05-04T17:22:05.363Z,18.81
2018-05-04T17:23:05.293Z,18.73
2018-05-04T17:24:05.233Z,18.81
2018-05-04T17:25:05.207Z,18.80
2018-05-04T17:26:05.099Z,18.80
2018-05-04T17:27:05.064Z,18.76
2018-05-04T17:28:04.975Z,18.73
2018-05-04T17:29:04.919Z,18.67
2018-05-04T17:30:04.831Z,18.67
2018-05-04T17:31:04.785Z,18.76
2018-05-04T17:32:04.715Z,18.66
2018-05-04T17:33:04.652Z,18.63
2018-05-04T17:34:04.616Z,18.58
2018-05-04T17:35:04.525Z,18.63
2018-05-04T17:36:25.452Z,18.55
2018-05-04T17:37:25.370Z,18.54
2018-05-04T17:38:25.331Z,18.54
2018-05-04T17:39:04.275Z,18.54
2018-05-04T17:40:04.192Z,18.47
2018-05-04T17:41:04.135Z,18.50
2018-05-04T17:42:04.067Z,18.48
2018-05-04T17:43:04.000Z,18.54
2018-05-04T17:44:24.917Z,18.44
2018-05-04T17:45:03.875Z,18.30
2018-05-04T17:46:03.798Z,18.37
2018-05-04T17:47:03.736Z,18.37
2018-05-04T17:48:03.666Z,18.41
2018-05-04T17:49:03.608Z,18.39
2018-05-04T17:50:03.544Z,18.45
2018-05-04T17:51:03.490Z,18.51
2018-05-04T17:52:03.412Z,18.52
2018-05-04T17:53:03.344Z,18.55
2018-05-04T17:54:03.283Z,18.51
2018-05-04T17:55:03.259Z,18.45
2018-05-04T17:56:03.210Z,18.42
2018-05-04T17:57:03.089Z,18.39
2018-05-04T17:58:24.013Z,18.42
2018-05-04T17:59:02.963Z,18.25
2018-05-04T18:00:02.895Z,18.08
2018-05-04T18:01:02.842Z,18.05
2018-05-04T18:02:02.762Z,18.12
2018-05-04T18:03:02.706Z,18.15
2018-05-04T18:04:02.628Z,18.15
2018-05-04T18:05:02.578Z,18.15
2018-05-04T18:06:02.499Z,18.05
2018-05-04T18:07:02.433Z,18.11
2018-05-04T18:08:02.371Z,18.05
2018-05-04T18:09:02.311Z,18.17
2018-05-04T18:10:23.304Z,18.25
2018-05-04T18:11:02.182Z,18.20
2018-05-04T18:12:02.103Z,18.26
2018-05-04T18:13:02.060Z,18.23
2018-05-04T18:14:01.978Z,18.20
2018-05-04T18:15:01.916Z,18.08
2018-05-04T18:16:01.856Z,18.07
2018-05-04T18:17:01.793Z,18.15
2018-05-04T18:18:01.730Z,17.93
2018-05-04T18:19:01.661Z,17.92
2018-05-04T18:20:01.599Z,17.89
2018-05-04T18:21:22.518Z,17.87
2018-05-04T18:22:01.474Z,17.79
2018-05-04T18:23:01.395Z,17.82
2018-05-04T18:24:01.326Z,17.84
2018-05-04T18:25:01.274Z,17.86
2018-05-04T18:26:01.193Z,17.78
2018-05-04T18:27:22.121Z,17.82
2018-05-04T18:28:01.074Z,17.79
2018-05-04T18:29:01.023Z,17.82
2018-05-04T18:30:00.965Z,17.84
2018-05-04T18:31:00.888Z,17.79
2018-05-04T18:32:00.801Z,17.84
2018-05-04T18:33:00.777Z,17.77
2018-05-04T18:34:00.668Z,17.77
2018-05-04T18:35:00.634Z,17.75
2018-05-04T18:36:00.542Z,17.72
2018-05-04T18:37:00.492Z,17.77
2018-05-04T18:38:00.417Z,17.74
2018-05-04T18:39:00.358Z,17.66
2018-05-04T18:40:00.297Z,17.44
2018-05-04T18:41:00.223Z,17.49
2018-05-04T18:42:00.152Z,17.44
2018-05-04T18:43:00.093Z,17.44
2018-05-04T18:44:00.023Z,17.40
2018-05-04T18:45:00.039Z,17.38
2018-05-04T18:45:59.906Z,17.44
2018-05-04T18:46:59.828Z,17.43
2018-05-04T18:47:59.761Z,17.33
2018-05-04T18:48:59.700Z,17.28
2018-05-04T18:49:59.628Z,17.21
2018-05-04T18:50:59.561Z,17.19
2018-05-04T18:51:59.503Z,17.21
2018-05-04T18:52:59.442Z,17.25
2018-05-04T18:53:59.358Z,17.30
2018-05-04T18:54:59.309Z,17.33
2018-05-04T18:55:59.242Z,17.30
2018-05-04T18:56:59.179Z,17.26
2018-05-04T18:57:59.093Z,17.31
2018-05-04T18:58:59.034Z,17.26
2018-05-04T18:59:59.054Z,17.22
2018-05-04T19:00:58.895Z,17.22
2018-05-04T19:01:58.839Z,17.25
2018-05-04T19:02:58.775Z,17.14
2018-05-04T19:04:19.703Z,17.01
2018-05-04T19:04:58.640Z,17.11
2018-05-04T19:05:58.579Z,17.01
2018-05-04T19:06:58.508Z,16.98
2018-05-04T19:07:58.509Z,16.97
2018-05-04T19:08:58.370Z,16.86
2018-05-04T19:09:58.320Z,16.75
2018-05-04T19:10:58.249Z,16.79
2018-05-04T19:11:58.167Z,16.88
2018-05-04T19:12:58.111Z,16.88
2018-05-04T19:13:58.045Z,16.76
2018-05-04T19:14:57.975Z,16.67
2018-05-04T19:16:18.928Z,16.85
2018-05-04T19:16:57.857Z,16.85
2018-05-04T19:17:57.790Z,16.76
2018-05-04T19:18:57.713Z,16.79
2018-05-04T19:19:57.649Z,16.79
2018-05-04T19:20:57.591Z,16.85
2018-05-04T19:21:57.505Z,16.81
2018-05-04T19:22:57.442Z,16.85
2018-05-04T19:23:57.391Z,16.94
2018-05-04T19:24:57.313Z,16.75
2018-05-04T19:26:18.233Z,16.79
2018-05-04T19:26:57.186Z,16.73
2018-05-04T19:27:57.115Z,16.64
2018-05-04T19:28:57.045Z,16.73
2018-05-04T19:29:56.992Z,16.75
2018-05-04T19:30:56.933Z,16.70
2018-05-04T19:31:56.848Z,16.75
2018-05-04T19:32:56.777Z,16.63
2018-05-04T19:33:56.729Z,16.64
2018-05-04T19:34:56.658Z,16.67
2018-05-04T19:35:56.594Z,16.63
2018-05-04T19:36:56.536Z,16.52
2018-05-04T19:37:56.466Z,16.58
2018-05-04T19:38:56.388Z,16.52
2018-05-04T19:39:56.403Z,16.53
2018-05-04T19:40:56.259Z,16.53
2018-05-04T19:41:56.229Z,16.53
2018-05-04T19:42:56.113Z,16.53
2018-05-04T19:43:56.060Z,16.64
2018-05-04T19:44:55.998Z,16.64
2018-05-04T19:45:55.911Z,16.63
2018-05-04T19:46:55.852Z,16.60
2018-05-04T19:47:55.787Z,16.71
2018-05-04T19:50:50.884Z,16.53
2018-05-04T19:52:25.151Z,16.58
2018-05-04T19:53:24.923Z,16.50
2018-05-04T19:55:21.064Z,16.67
2018-05-04T19:56:20.982Z,16.60
2018-05-04T19:58:16.278Z,16.43
2018-05-04T19:59:16.172Z,16.53
2018-05-04T20:01:11.489Z,16.48
2018-05-04T20:02:11.395Z,16.28
2018-05-04T20:04:06.747Z,16.42
2018-05-04T20:05:06.649Z,16.15
2018-05-04T20:07:01.951Z,16.17
2018-05-04T20:08:01.808Z,16.09
2018-05-04T20:10:18.069Z,16.12
2018-05-04T20:11:52.367Z,16.14
2018-05-04T20:12:52.246Z,16.17
2018-05-04T20:14:48.404Z,16.00
2018-05-04T20:15:48.318Z,16.08
2018-05-04T20:17:43.614Z,16.08
2018-05-04T20:19:58.846Z,16.04
2018-05-04T20:20:58.744Z,16.11
2018-05-04T20:22:54.002Z,16.12
2018-05-04T20:23:53.938Z,16.11
2018-05-04T20:25:49.331Z,16.14
2018-05-04T20:26:49.119Z,16.28
2018-05-04T20:28:44.405Z,16.15
2018-05-04T20:29:44.326Z,16.12
2018-05-04T20:30:44.249Z,16.20
2018-05-04T20:31:44.181Z,16.08
2018-05-04T20:32:44.114Z,16.12
2018-05-04T20:33:44.068Z,16.08
2018-05-04T20:34:43.974Z,16.04
2018-05-04T20:35:43.911Z,16.12
2018-05-04T20:36:43.859Z,16.07
2018-05-04T20:37:43.839Z,16.01
2018-05-04T20:38:43.726Z,16.09
2018-05-04T20:39:43.650Z,16.17
2018-05-04T20:40:43.580Z,16.09
2018-05-04T20:42:04.499Z,15.96
2018-05-04T20:42:43.445Z,15.87
2018-05-04T20:43:43.382Z,16.00
2018-05-04T20:45:04.304Z,15.84
2018-05-04T20:45:43.257Z,15.94
2018-05-04T20:46:43.174Z,15.83
2018-05-04T20:47:43.102Z,15.84
2018-05-04T20:48:43.056Z,15.92
2018-05-04T20:49:42.994Z,15.94
2018-05-04T20:50:42.920Z,15.96
2018-05-04T20:51:42.838Z,15.94
2018-05-04T20:52:42.789Z,15.82
2018-05-04T20:53:42.722Z,15.87
2018-05-04T20:56:16.772Z,15.97
2018-05-04T20:57:16.588Z,15.92
2018-05-04T20:59:12.751Z,15.90
2018-05-04T21:00:12.633Z,15.92
2018-05-04T21:02:07.940Z,15.89
2018-05-04T21:03:07.823Z,15.82
2018-05-04T21:05:03.135Z,15.75
2018-05-04T21:06:03.040Z,15.75
2018-05-04T21:07:58.292Z,15.69
2018-05-04T21:08:58.206Z,15.74
2018-05-04T21:10:53.533Z,15.74
2018-05-04T21:11:53.422Z,15.74
2018-05-04T21:13:48.724Z,15.72
2018-05-04T21:16:03.931Z,15.62
2018-05-04T21:17:03.846Z,15.64
2018-05-04T21:18:59.163Z,15.57
2018-05-04T21:19:59.091Z,15.59
2018-05-04T21:21:54.368Z,15.51
2018-05-04T21:22:54.236Z,15.50
2018-05-04T21:24:49.550Z,15.53
2018-05-04T21:25:49.431Z,15.50
2018-05-04T21:28:05.728Z,15.53
2018-05-04T21:29:39.991Z,15.38
2018-05-04T21:30:39.876Z,15.43
2018-05-04T21:34:09.803Z,15.47
2018-05-04T21:36:25.043Z,15.35
2018-05-04T21:37:24.969Z,15.25
2018-05-04T21:39:20.279Z,15.44
2018-05-04T21:40:20.161Z,15.38
2018-05-04T21:42:16.383Z,15.56
2018-05-04T21:44:31.542Z,15.56
2018-05-04T21:45:31.457Z,15.60
2018-05-04T21:47:26.769Z,15.56
2018-05-04T21:48:26.646Z,15.62
2018-05-04T21:50:22.764Z,15.71
2018-05-04T21:51:22.689Z,15.59
2018-05-04T21:53:17.993Z,15.57
2018-05-04T21:54:17.876Z,15.46
2018-05-04T21:56:34.149Z,15.36
2018-05-04T21:58:08.524Z,15.36
2018-05-04T21:59:08.389Z,15.34
2018-05-04T22:01:03.647Z,15.31
2018-05-04T22:02:03.534Z,15.31
2018-05-04T22:03:58.825Z,15.16
2018-05-04T22:04:58.747Z,15.20
2018-05-04T22:06:54.060Z,15.19
2018-05-04T22:07:53.944Z,15.27
2018-05-04T22:08:53.894Z,15.21
2018-05-04T22:09:53.803Z,15.11
2018-05-04T22:10:53.763Z,15.17
2018-05-04T22:11:53.678Z,15.07
2018-05-04T22:12:53.609Z,14.94
2018-05-04T22:13:53.542Z,14.88
2018-05-04T22:14:53.477Z,14.95
2018-05-04T22:15:53.397Z,15.01
2018-05-04T22:16:53.338Z,14.92
2018-05-04T22:17:53.271Z,15.07
2018-05-04T22:18:53.197Z,15.07
2018-05-04T22:19:53.139Z,15.21
2018-05-04T22:20:53.073Z,15.13
2018-05-04T22:21:52.987Z,15.14
2018-05-04T22:22:52.937Z,15.02
2018-05-04T22:23:52.875Z,15.11
2018-05-04T22:24:52.805Z,15.10
2018-05-04T22:25:52.739Z,15.14
2018-05-04T22:26:52.671Z,15.14
2018-05-04T22:27:52.597Z,15.19
2018-05-04T22:28:52.530Z,15.06
2018-05-04T22:29:52.469Z,15.09
2018-05-04T22:30:52.390Z,15.11
2018-05-04T22:31:52.333Z,14.96
2018-05-04T22:32:52.262Z,15.07
2018-05-04T22:33:52.184Z,15.10
2018-05-04T22:34:52.127Z,14.92
2018-05-04T22:35:52.053Z,15.01
2018-05-04T22:36:51.985Z,15.10
2018-05-04T22:37:51.923Z,15.03
2018-05-04T22:38:51.859Z,15.13
2018-05-04T22:39:51.792Z,15.09
2018-05-04T22:40:51.728Z,15.03
2018-05-04T22:41:51.647Z,14.92
2018-05-04T22:42:51.584Z,14.94
2018-05-04T22:43:51.509Z,14.95
2018-05-04T22:44:51.461Z,14.98
2018-05-04T22:45:51.376Z,14.94
2018-05-04T22:46:51.309Z,14.95
2018-05-04T22:47:51.236Z,14.94
2018-05-04T22:48:51.187Z,14.89
2018-05-04T22:49:51.123Z,14.98
2018-05-04T22:50:51.038Z,14.95
2018-05-04T22:51:50.977Z,14.94
2018-05-04T22:52:50.910Z,14.96
2018-05-04T22:54:11.824Z,14.96
2018-05-04T22:54:50.778Z,14.92
2018-05-04T22:55:50.701Z,15.09
2018-05-04T22:56:50.640Z,15.11
2018-05-04T22:58:11.565Z,15.10
2018-05-04T22:58:50.490Z,15.11
2018-05-04T22:59:50.450Z,15.20
2018-05-04T23:00:50.371Z,15.19
2018-05-04T23:01:50.286Z,15.21
2018-05-04T23:02:50.230Z,15.20
2018-05-04T23:03:50.153Z,15.19
2018-05-04T23:04:50.090Z,15.16
2018-05-04T23:05:50.020Z,15.21
2018-05-04T23:06:49.974Z,15.11
2018-05-04T23:07:49.892Z,14.98
2018-05-04T23:08:49.836Z,15.01
2018-05-04T23:09:49.761Z,14.95
2018-05-04T23:10:49.689Z,15.02
2018-05-04T23:11:49.633Z,15.06
2018-05-04T23:12:49.563Z,15.13
2018-05-04T23:13:49.492Z,15.09
2018-05-04T23:14:49.417Z,15.07
2018-05-04T23:15:49.356Z,15.06
2018-05-04T23:16:49.284Z,14.94
2018-05-04T23:17:49.215Z,14.91
2018-05-04T23:18:49.149Z,14.89
2018-05-04T23:19:49.080Z,14.94
2018-05-04T23:20:49.018Z,14.95
2018-05-04T23:21:48.954Z,14.99
2018-05-04T23:22:48.888Z,14.94
2018-05-04T23:23:48.800Z,14.98
2018-05-04T23:24:48.740Z,14.92
2018-05-04T23:25:48.672Z,14.77
2018-05-04T23:26:48.621Z,14.70
2018-05-04T23:27:48.553Z,14.72
2018-05-04T23:28:48.477Z,14.78
2018-05-04T23:29:48.411Z,14.78
2018-05-04T23:30:48.337Z,14.80
2018-05-04T23:33:22.330Z,14.86
2018-05-04T23:34:22.226Z,14.77
2018-05-04T23:36:17.505Z,14.68
2018-05-04T23:37:17.415Z,14.60
2018-05-04T23:39:12.711Z,14.81
2018-05-04T23:40:12.601Z,14.80
2018-05-04T23:42:07.890Z,14.75
2018-05-04T23:43:07.797Z,14.70
2018-05-04T23:45:03.092Z,14.65
2018-05-04T23:47:18.308Z,14.68
2018-05-04T23:48:18.191Z,14.64
2018-05-04T23:50:13.493Z,14.57
2018-05-04T23:51:13.373Z,14.47
2018-05-04T23:53:08.644Z,14.43
2018-05-04T23:54:08.546Z,14.42
2018-05-04T23:56:03.832Z,14.42
2018-05-04T23:57:03.734Z,14.50
2018-05-04T23:58:59.035Z,14.51
2018-05-04T23:59:58.932Z,14.40
